sensor_id;sensor_type;location;lat;lon;timestamp;temperature;humidity
8953;DHT22;4511;50.890;8.054;2023-07-13T00:00:10;20.10;95.10
8953;DHT22;4511;50.890;8.054;2023-07-13T00:02:37;20.10;95.20
8953;DHT22;4511;50.890;8.054;2023-07-13T00:05:05;20.10;95.20
8953;DHT22;4511;50.890;8.054;2023-07-13T00:07:33;20.00;95.50
8953;DHT22;4511;50.890;8.054;2023-07-13T00:10:00;19.80;95.00
8953;DHT22;4511;50.890;8.054;2023-07-13T00:12:30;19.60;95.70
8953;DHT22;4511;50.890;8.054;2023-07-13T00:14:58;19.60;95.90
8953;DHT22;4511;50.890;8.054;2023-07-13T00:17:26;19.30;95.90
8953;DHT22;4511;50.890;8.054;2023-07-13T00:19:54;19.10;96.20
8953;DHT22;4511;50.890;8.054;2023-07-13T00:22:21;19.00;95.90
8953;DHT22;4511;50.890;8.054;2023-07-13T00:24:51;18.70;96.30
8953;DHT22;4511;50.890;8.054;2023-07-13T00:27:18;18.90;96.30
8953;DHT22;4511;50.890;8.054;2023-07-13T00:29:45;19.00;95.70
8953;DHT22;4511;50.890;8.054;2023-07-13T00:32:12;19.10;95.60
8953;DHT22;4511;50.890;8.054;2023-07-13T00:34:39;19.20;95.10
8953;DHT22;4511;50.890;8.054;2023-07-13T00:37:07;19.30;95.50
8953;DHT22;4511;50.890;8.054;2023-07-13T00:39:34;19.30;95.20
8953;DHT22;4511;50.890;8.054;2023-07-13T00:42:04;19.30;95.20
8953;DHT22;4511;50.890;8.054;2023-07-13T00:44:31;19.40;95.20
8953;DHT22;4511;50.890;8.054;2023-07-13T00:46:58;19.40;95.20
8953;DHT22;4511;50.890;8.054;2023-07-13T00:49:26;19.40;95.10
8953;DHT22;4511;50.890;8.054;2023-07-13T00:51:57;19.30;95.00
8953;DHT22;4511;50.890;8.054;2023-07-13T00:54:27;19.30;95.20
8953;DHT22;4511;50.890;8.054;2023-07-13T00:56:58;19.20;95.40
8953;DHT22;4511;50.890;8.054;2023-07-13T00:59:27;19.10;96.30
8953;DHT22;4511;50.890;8.054;2023-07-13T01:01:54;18.90;97.10
8953;DHT22;4511;50.890;8.054;2023-07-13T01:04:23;18.90;97.30
8953;DHT22;4511;50.890;8.054;2023-07-13T01:06:50;18.90;97.60
8953;DHT22;4511;50.890;8.054;2023-07-13T01:09:17;19.00;97.10
8953;DHT22;4511;50.890;8.054;2023-07-13T01:11:44;18.90;97.80
8953;DHT22;4511;50.890;8.054;2023-07-13T01:14:11;18.80;97.90
8953;DHT22;4511;50.890;8.054;2023-07-13T01:16:42;18.60;97.80
8953;DHT22;4511;50.890;8.054;2023-07-13T01:19:16;18.50;98.20
8953;DHT22;4511;50.890;8.054;2023-07-13T01:21:50;18.50;99.00
8953;DHT22;4511;50.890;8.054;2023-07-13T01:24:16;18.50;99.30
8953;DHT22;4511;50.890;8.054;2023-07-13T01:26:43;18.40;99.70
8953;DHT22;4511;50.890;8.054;2023-07-13T01:29:10;18.40;99.60
8953;DHT22;4511;50.890;8.054;2023-07-13T01:31:36;18.40;99.50
8953;DHT22;4511;50.890;8.054;2023-07-13T01:34:03;18.30;99.80
8953;DHT22;4511;50.890;8.054;2023-07-13T01:36:30;18.20;99.90
8953;DHT22;4511;50.890;8.054;2023-07-13T01:38:58;18.20;99.90
8953;DHT22;4511;50.890;8.054;2023-07-13T01:41:25;18.10;99.90
8953;DHT22;4511;50.890;8.054;2023-07-13T01:43:51;17.90;99.90
8953;DHT22;4511;50.890;8.054;2023-07-13T01:46:18;17.80;99.90
8953;DHT22;4511;50.890;8.054;2023-07-13T01:48:45;17.80;99.90
8953;DHT22;4511;50.890;8.054;2023-07-13T01:51:12;17.80;99.90
8953;DHT22;4511;50.890;8.054;2023-07-13T01:53:39;17.70;99.90
8953;DHT22;4511;50.890;8.054;2023-07-13T01:56:07;17.70;99.90
8953;DHT22;4511;50.890;8.054;2023-07-13T01:58:34;17.70;99.90
8953;DHT22;4511;50.890;8.054;2023-07-13T02:01:00;17.60;99.90
8953;DHT22;4511;50.890;8.054;2023-07-13T02:03:27;17.60;99.90
8953;DHT22;4511;50.890;8.054;2023-07-13T02:05:54;17.60;99.90
8953;DHT22;4511;50.890;8.054;2023-07-13T02:10:50;17.40;99.90
8953;DHT22;4511;50.890;8.054;2023-07-13T02:13:18;17.40;99.90
8953;DHT22;4511;50.890;8.054;2023-07-13T02:15:45;17.30;99.90
8953;DHT22;4511;50.890;8.054;2023-07-13T02:18:12;17.30;99.90
8953;DHT22;4511;50.890;8.054;2023-07-13T02:20:42;17.30;99.90
8953;DHT22;4511;50.890;8.054;2023-07-13T02:23:09;17.20;99.90
8953;DHT22;4511;50.890;8.054;2023-07-13T02:25:37;17.00;99.90
8953;DHT22;4511;50.890;8.054;2023-07-13T02:28:03;17.10;99.90
8953;DHT22;4511;50.890;8.054;2023-07-13T02:30:32;17.10;99.90
8953;DHT22;4511;50.890;8.054;2023-07-13T02:32:58;17.20;99.90
8953;DHT22;4511;50.890;8.054;2023-07-13T02:35:25;17.10;99.90
8953;DHT22;4511;50.890;8.054;2023-07-13T02:37:52;17.00;99.90
8953;DHT22;4511;50.890;8.054;2023-07-13T02:40:19;16.90;99.90
8953;DHT22;4511;50.890;8.054;2023-07-13T02:42:46;16.90;99.90
8953;DHT22;4511;50.890;8.054;2023-07-13T02:45:13;17.00;99.90
8953;DHT22;4511;50.890;8.054;2023-07-13T02:47:42;17.00;99.90
8953;DHT22;4511;50.890;8.054;2023-07-13T02:50:09;16.90;99.90
8953;DHT22;4511;50.890;8.054;2023-07-13T02:52:36;17.00;99.90
8953;DHT22;4511;50.890;8.054;2023-07-13T02:55:03;16.90;99.90
8953;DHT22;4511;50.890;8.054;2023-07-13T02:57:29;16.90;99.90
8953;DHT22;4511;50.890;8.054;2023-07-13T02:59:58;16.90;99.90
8953;DHT22;4511;50.890;8.054;2023-07-13T03:02:26;16.80;99.90
8953;DHT22;4511;50.890;8.054;2023-07-13T03:04:55;16.70;99.90
8953;DHT22;4511;50.890;8.054;2023-07-13T03:07:22;16.70;99.90
8953;DHT22;4511;50.890;8.054;2023-07-13T03:09:49;16.50;99.90
8953;DHT22;4511;50.890;8.054;2023-07-13T03:12:20;16.50;99.90
8953;DHT22;4511;50.890;8.054;2023-07-13T03:14:47;16.40;99.90
8953;DHT22;4511;50.890;8.054;2023-07-13T03:17:14;16.60;99.90
8953;DHT22;4511;50.890;8.054;2023-07-13T03:19:41;16.50;99.90
8953;DHT22;4511;50.890;8.054;2023-07-13T03:22:10;16.40;99.90
8953;DHT22;4511;50.890;8.054;2023-07-13T03:24:37;16.40;99.90
8953;DHT22;4511;50.890;8.054;2023-07-13T03:27:05;16.40;99.90
8953;DHT22;4511;50.890;8.054;2023-07-13T03:29:32;16.30;99.90
8953;DHT22;4511;50.890;8.054;2023-07-13T03:31:59;16.30;99.90
8953;DHT22;4511;50.890;8.054;2023-07-13T03:34:25;16.20;99.90
8953;DHT22;4511;50.890;8.054;2023-07-13T03:36:54;16.20;99.90
8953;DHT22;4511;50.890;8.054;2023-07-13T03:39:22;16.00;99.90
8953;DHT22;4511;50.890;8.054;2023-07-13T03:41:49;16.00;99.90
8953;DHT22;4511;50.890;8.054;2023-07-13T03:44:16;16.00;99.90
8953;DHT22;4511;50.890;8.054;2023-07-13T03:46:43;16.00;99.90
8953;DHT22;4511;50.890;8.054;2023-07-13T03:49:10;16.00;99.90
8953;DHT22;4511;50.890;8.054;2023-07-13T03:51:37;16.10;99.90
8953;DHT22;4511;50.890;8.054;2023-07-13T03:54:04;16.20;99.90
8953;DHT22;4511;50.890;8.054;2023-07-13T03:56:33;16.20;99.90
8953;DHT22;4511;50.890;8.054;2023-07-13T03:59:00;16.20;99.90
8953;DHT22;4511;50.890;8.054;2023-07-13T04:01:27;16.20;99.90
8953;DHT22;4511;50.890;8.054;2023-07-13T04:03:54;16.30;99.90
8953;DHT22;4511;50.890;8.054;2023-07-13T04:06:22;16.30;99.90
8953;DHT22;4511;50.890;8.054;2023-07-13T04:08:51;16.30;99.90
8953;DHT22;4511;50.890;8.054;2023-07-13T04:11:19;16.40;99.90
8953;DHT22;4511;50.890;8.054;2023-07-13T04:13:49;16.40;99.90
8953;DHT22;4511;50.890;8.054;2023-07-13T04:16:17;16.50;99.90
8953;DHT22;4511;50.890;8.054;2023-07-13T04:18:43;16.40;99.90
8953;DHT22;4511;50.890;8.054;2023-07-13T04:21:10;16.30;99.90
8953;DHT22;4511;50.890;8.054;2023-07-13T04:23:38;16.30;99.90
8953;DHT22;4511;50.890;8.054;2023-07-13T04:26:05;16.30;99.90
8953;DHT22;4511;50.890;8.054;2023-07-13T04:28:33;16.40;99.90
8953;DHT22;4511;50.890;8.054;2023-07-13T04:31:01;16.40;99.90
8953;DHT22;4511;50.890;8.054;2023-07-13T04:33:29;16.50;99.90
8953;DHT22;4511;50.890;8.054;2023-07-13T04:35:56;16.60;99.90
8953;DHT22;4511;50.890;8.054;2023-07-13T04:38:24;16.50;99.90
8953;DHT22;4511;50.890;8.054;2023-07-13T04:40:54;16.50;99.90
8953;DHT22;4511;50.890;8.054;2023-07-13T04:43:21;16.60;99.90
8953;DHT22;4511;50.890;8.054;2023-07-13T04:45:48;16.60;99.90
8953;DHT22;4511;50.890;8.054;2023-07-13T04:48:16;16.70;99.90
8953;DHT22;4511;50.890;8.054;2023-07-13T04:50:42;16.80;99.90
8953;DHT22;4511;50.890;8.054;2023-07-13T04:53:09;16.90;99.90
8953;DHT22;4511;50.890;8.054;2023-07-13T04:55:36;16.90;99.90
8953;DHT22;4511;50.890;8.054;2023-07-13T05:00:31;17.10;99.90
8953;DHT22;4511;50.890;8.054;2023-07-13T05:02:58;17.30;99.90
8953;DHT22;4511;50.890;8.054;2023-07-13T05:05:29;17.50;99.90
8953;DHT22;4511;50.890;8.054;2023-07-13T05:07:55;17.40;99.90
8953;DHT22;4511;50.890;8.054;2023-07-13T05:10:22;17.20;99.90
8953;DHT22;4511;50.890;8.054;2023-07-13T05:12:50;17.30;99.90
8953;DHT22;4511;50.890;8.054;2023-07-13T05:15:17;17.30;99.90
8953;DHT22;4511;50.890;8.054;2023-07-13T05:17:46;17.40;99.90
8953;DHT22;4511;50.890;8.054;2023-07-13T05:20:13;17.40;99.90
8953;DHT22;4511;50.890;8.054;2023-07-13T05:22:41;17.50;99.90
8953;DHT22;4511;50.890;8.054;2023-07-13T05:25:08;17.50;99.90
8953;DHT22;4511;50.890;8.054;2023-07-13T05:27:36;17.50;99.90
8953;DHT22;4511;50.890;8.054;2023-07-13T05:30:04;17.60;99.90
8953;DHT22;4511;50.890;8.054;2023-07-13T05:32:31;17.60;99.90
8953;DHT22;4511;50.890;8.054;2023-07-13T05:34:57;17.70;99.90
8953;DHT22;4511;50.890;8.054;2023-07-13T05:37:24;17.80;99.90
8953;DHT22;4511;50.890;8.054;2023-07-13T05:39:52;17.80;99.90
8953;DHT22;4511;50.890;8.054;2023-07-13T05:42:19;17.90;99.90
8953;DHT22;4511;50.890;8.054;2023-07-13T05:44:46;17.90;99.90
8953;DHT22;4511;50.890;8.054;2023-07-13T05:47:12;18.00;99.90
8953;DHT22;4511;50.890;8.054;2023-07-13T05:49:40;18.00;99.90
8953;DHT22;4511;50.890;8.054;2023-07-13T05:52:07;18.10;99.90
8953;DHT22;4511;50.890;8.054;2023-07-13T05:54:34;18.10;99.90
8953;DHT22;4511;50.890;8.054;2023-07-13T05:57:02;18.10;99.90
8953;DHT22;4511;50.890;8.054;2023-07-13T05:59:29;18.10;99.90
8953;DHT22;4511;50.890;8.054;2023-07-13T06:01:56;18.00;99.90
8953;DHT22;4511;50.890;8.054;2023-07-13T06:04:22;18.00;99.90
8953;DHT22;4511;50.890;8.054;2023-07-13T06:06:49;18.00;99.90
8953;DHT22;4511;50.890;8.054;2023-07-13T06:09:16;18.10;99.90
8953;DHT22;4511;50.890;8.054;2023-07-13T06:11:43;17.90;99.90
8953;DHT22;4511;50.890;8.054;2023-07-13T06:14:11;17.90;99.90
8953;DHT22;4511;50.890;8.054;2023-07-13T06:16:39;17.80;99.90
8953;DHT22;4511;50.890;8.054;2023-07-13T06:19:06;17.90;99.90
8953;DHT22;4511;50.890;8.054;2023-07-13T06:21:33;17.60;99.90
8953;DHT22;4511;50.890;8.054;2023-07-13T06:24:00;17.30;99.90
8953;DHT22;4511;50.890;8.054;2023-07-13T06:26:26;17.60;99.90
8953;DHT22;4511;50.890;8.054;2023-07-13T06:28:53;17.40;99.90
8953;DHT22;4511;50.890;8.054;2023-07-13T06:31:21;17.00;99.90
8953;DHT22;4511;50.890;8.054;2023-07-13T06:33:48;16.90;99.90
8953;DHT22;4511;50.890;8.054;2023-07-13T06:36:15;17.00;99.90
8953;DHT22;4511;50.890;8.054;2023-07-13T06:38:42;17.00;99.90
8953;DHT22;4511;50.890;8.054;2023-07-13T06:41:08;17.30;99.90
8953;DHT22;4511;50.890;8.054;2023-07-13T06:43:35;17.20;99.90
8953;DHT22;4511;50.890;8.054;2023-07-13T06:46:02;17.20;99.90
8953;DHT22;4511;50.890;8.054;2023-07-13T06:48:31;17.10;99.90
8953;DHT22;4511;50.890;8.054;2023-07-13T06:50:58;17.30;99.90
8953;DHT22;4511;50.890;8.054;2023-07-13T06:53:24;17.40;99.90
8953;DHT22;4511;50.890;8.054;2023-07-13T06:55:51;17.30;99.90
8953;DHT22;4511;50.890;8.054;2023-07-13T06:58:18;17.20;99.90
8953;DHT22;4511;50.890;8.054;2023-07-13T07:00:45;17.10;99.90
8953;DHT22;4511;50.890;8.054;2023-07-13T07:03:12;17.40;99.90
8953;DHT22;4511;50.890;8.054;2023-07-13T07:05:40;17.70;99.90
8953;DHT22;4511;50.890;8.054;2023-07-13T07:08:08;18.00;99.90
8953;DHT22;4511;50.890;8.054;2023-07-13T07:10:35;18.30;99.90
8953;DHT22;4511;50.890;8.054;2023-07-13T07:13:02;18.30;99.90
8953;DHT22;4511;50.890;8.054;2023-07-13T07:15:29;18.50;99.90
8953;DHT22;4511;50.890;8.054;2023-07-13T07:17:56;18.60;99.90
8953;DHT22;4511;50.890;8.054;2023-07-13T07:20:23;18.50;99.90
8953;DHT22;4511;50.890;8.054;2023-07-13T07:22:51;18.40;99.90
8953;DHT22;4511;50.890;8.054;2023-07-13T07:25:18;18.60;99.90
8953;DHT22;4511;50.890;8.054;2023-07-13T07:27:45;18.70;99.90
8953;DHT22;4511;50.890;8.054;2023-07-13T07:30:13;18.40;99.90
8953;DHT22;4511;50.890;8.054;2023-07-13T07:32:40;18.50;99.90
8953;DHT22;4511;50.890;8.054;2023-07-13T07:35:08;18.20;99.90
8953;DHT22;4511;50.890;8.054;2023-07-13T07:37:34;18.40;99.90
8953;DHT22;4511;50.890;8.054;2023-07-13T07:40:03;18.20;99.90
8953;DHT22;4511;50.890;8.054;2023-07-13T07:42:30;18.30;99.90
8953;DHT22;4511;50.890;8.054;2023-07-13T07:44:57;18.20;99.90
8953;DHT22;4511;50.890;8.054;2023-07-13T07:47:23;18.20;99.90
8953;DHT22;4511;50.890;8.054;2023-07-13T07:49:50;18.40;99.90
8953;DHT22;4511;50.890;8.054;2023-07-13T07:52:18;18.50;99.90
8953;DHT22;4511;50.890;8.054;2023-07-13T07:54:45;18.70;99.90
8953;DHT22;4511;50.890;8.054;2023-07-13T07:57:13;18.80;99.90
8953;DHT22;4511;50.890;8.054;2023-07-13T07:59:39;18.80;99.90
8953;DHT22;4511;50.890;8.054;2023-07-13T08:02:08;18.70;99.90
8953;DHT22;4511;50.890;8.054;2023-07-13T08:04:35;18.90;99.90
8953;DHT22;4511;50.890;8.054;2023-07-13T08:07:02;19.00;99.90
8953;DHT22;4511;50.890;8.054;2023-07-13T08:09:29;18.50;99.90
8953;DHT22;4511;50.890;8.054;2023-07-13T08:11:56;18.70;99.90
8953;DHT22;4511;50.890;8.054;2023-07-13T08:14:24;18.60;99.90
8953;DHT22;4511;50.890;8.054;2023-07-13T08:16:50;18.60;99.90
8953;DHT22;4511;50.890;8.054;2023-07-13T08:19:19;18.50;99.90
8953;DHT22;4511;50.890;8.054;2023-07-13T08:21:46;18.50;99.90
8953;DHT22;4511;50.890;8.054;2023-07-13T08:24:13;18.80;99.90
8953;DHT22;4511;50.890;8.054;2023-07-13T08:26:40;18.70;99.90
8953;DHT22;4511;50.890;8.054;2023-07-13T08:29:07;18.80;99.90
8953;DHT22;4511;50.890;8.054;2023-07-13T08:31:35;18.80;99.90
8953;DHT22;4511;50.890;8.054;2023-07-13T08:34:02;18.80;99.90
8953;DHT22;4511;50.890;8.054;2023-07-13T08:36:29;18.90;99.90
8953;DHT22;4511;50.890;8.054;2023-07-13T08:38:56;18.60;99.90
8953;DHT22;4511;50.890;8.054;2023-07-13T08:41:23;18.90;99.90
8953;DHT22;4511;50.890;8.054;2023-07-13T08:43:51;19.20;99.90
8953;DHT22;4511;50.890;8.054;2023-07-13T08:46:24;19.40;99.90
8953;DHT22;4511;50.890;8.054;2023-07-13T08:48:56;19.50;99.90
8953;DHT22;4511;50.890;8.054;2023-07-13T08:51:34;19.80;99.90
8953;DHT22;4511;50.890;8.054;2023-07-13T08:54:03;19.80;99.90
8953;DHT22;4511;50.890;8.054;2023-07-13T08:56:32;19.80;99.90
8953;DHT22;4511;50.890;8.054;2023-07-13T08:59:01;19.90;99.90
8953;DHT22;4511;50.890;8.054;2023-07-13T09:01:33;19.90;99.90
8953;DHT22;4511;50.890;8.054;2023-07-13T09:04:11;19.90;99.90
8953;DHT22;4511;50.890;8.054;2023-07-13T09:06:58;20.20;99.90
8953;DHT22;4511;50.890;8.054;2023-07-13T09:09:37;20.30;99.90
8953;DHT22;4511;50.890;8.054;2023-07-13T09:12:14;20.10;99.90
8953;DHT22;4511;50.890;8.054;2023-07-13T09:14:44;20.30;99.90
8953;DHT22;4511;50.890;8.054;2023-07-13T09:17:16;20.50;99.90
8953;DHT22;4511;50.890;8.054;2023-07-13T09:19:47;20.50;99.90
8953;DHT22;4511;50.890;8.054;2023-07-13T09:22:19;20.30;99.90
8953;DHT22;4511;50.890;8.054;2023-07-13T09:25:00;20.00;99.90
8953;DHT22;4511;50.890;8.054;2023-07-13T09:27:31;20.50;99.90
8953;DHT22;4511;50.890;8.054;2023-07-13T09:30:11;20.90;99.90
8953;DHT22;4511;50.890;8.054;2023-07-13T09:32:43;20.70;99.90
8953;DHT22;4511;50.890;8.054;2023-07-13T09:35:16;20.50;99.90
8953;DHT22;4511;50.890;8.054;2023-07-13T09:37:45;20.70;99.90
8953;DHT22;4511;50.890;8.054;2023-07-13T09:40:30;20.70;99.90
8953;DHT22;4511;50.890;8.054;2023-07-13T09:43:03;20.60;99.90
8953;DHT22;4511;50.890;8.054;2023-07-13T09:45:33;20.60;99.90
8953;DHT22;4511;50.890;8.054;2023-07-13T09:48:05;20.20;99.90
8953;DHT22;4511;50.890;8.054;2023-07-13T09:50:33;20.40;99.90
8953;DHT22;4511;50.890;8.054;2023-07-13T09:53:01;20.70;99.90
8953;DHT22;4511;50.890;8.054;2023-07-13T09:55:31;20.50;99.90
8953;DHT22;4511;50.890;8.054;2023-07-13T09:58:03;20.50;99.90
8953;DHT22;4511;50.890;8.054;2023-07-13T10:00:31;20.30;99.90
8953;DHT22;4511;50.890;8.054;2023-07-13T10:03:01;20.10;99.90
8953;DHT22;4511;50.890;8.054;2023-07-13T10:05:39;20.40;99.90
8953;DHT22;4511;50.890;8.054;2023-07-13T10:08:08;21.00;99.90
8953;DHT22;4511;50.890;8.054;2023-07-13T10:10:41;20.90;99.90
8953;DHT22;4511;50.890;8.054;2023-07-13T10:13:24;20.90;99.90
8953;DHT22;4511;50.890;8.054;2023-07-13T10:15:52;20.70;99.90
8953;DHT22;4511;50.890;8.054;2023-07-13T10:18:19;20.80;99.90
8953;DHT22;4511;50.890;8.054;2023-07-13T10:20:49;20.80;99.90
8953;DHT22;4511;50.890;8.054;2023-07-13T10:23:21;20.80;99.90
8953;DHT22;4511;50.890;8.054;2023-07-13T10:25:50;21.10;99.90
8953;DHT22;4511;50.890;8.054;2023-07-13T10:28:25;21.30;99.90
8953;DHT22;4511;50.890;8.054;2023-07-13T10:30:55;21.00;99.90
8953;DHT22;4511;50.890;8.054;2023-07-13T10:33:23;21.60;99.90
8953;DHT22;4511;50.890;8.054;2023-07-13T10:35:54;21.40;99.90
8953;DHT22;4511;50.890;8.054;2023-07-13T10:38:24;21.90;99.90
8953;DHT22;4511;50.890;8.054;2023-07-13T10:40:57;21.60;99.90
8953;DHT22;4511;50.890;8.054;2023-07-13T10:43:26;21.70;99.90
8953;DHT22;4511;50.890;8.054;2023-07-13T10:45:55;21.70;99.90
8953;DHT22;4511;50.890;8.054;2023-07-13T10:48:23;21.30;99.90
8953;DHT22;4511;50.890;8.054;2023-07-13T10:50:53;21.60;99.90
8953;DHT22;4511;50.890;8.054;2023-07-13T10:53:29;22.00;99.90
8953;DHT22;4511;50.890;8.054;2023-07-13T10:56:00;22.00;99.90
8953;DHT22;4511;50.890;8.054;2023-07-13T10:58:33;21.40;99.90
8953;DHT22;4511;50.890;8.054;2023-07-13T11:01:06;21.50;99.90
8953;DHT22;4511;50.890;8.054;2023-07-13T11:03:35;22.00;99.90
8953;DHT22;4511;50.890;8.054;2023-07-13T11:06:09;21.90;99.90
8953;DHT22;4511;50.890;8.054;2023-07-13T11:08:38;21.90;99.90
8953;DHT22;4511;50.890;8.054;2023-07-13T11:11:34;21.70;99.90
8953;DHT22;4511;50.890;8.054;2023-07-13T11:14:27;22.20;99.90
8953;DHT22;4511;50.890;8.054;2023-07-13T11:16:54;22.20;99.90
8953;DHT22;4511;50.890;8.054;2023-07-13T11:22:22;22.60;99.90
8953;DHT22;4511;50.890;8.054;2023-07-13T11:24:57;22.00;99.90
8953;DHT22;4511;50.890;8.054;2023-07-13T11:27:35;21.80;99.90
8953;DHT22;4511;50.890;8.054;2023-07-13T11:30:22;22.30;99.90
8953;DHT22;4511;50.890;8.054;2023-07-13T11:33:01;22.70;99.90
8953;DHT22;4511;50.890;8.054;2023-07-13T11:35:33;22.80;99.90
8953;DHT22;4511;50.890;8.054;2023-07-13T11:38:02;22.60;99.90
8953;DHT22;4511;50.890;8.054;2023-07-13T11:40:29;22.00;99.90
8953;DHT22;4511;50.890;8.054;2023-07-13T11:42:59;21.60;99.90
8953;DHT22;4511;50.890;8.054;2023-07-13T11:45:27;21.50;99.90
8953;DHT22;4511;50.890;8.054;2023-07-13T11:47:54;21.30;99.90
8953;DHT22;4511;50.890;8.054;2023-07-13T11:50:23;21.70;99.90
8953;DHT22;4511;50.890;8.054;2023-07-13T11:52:52;21.80;99.90
8953;DHT22;4511;50.890;8.054;2023-07-13T11:55:22;22.50;99.90
8953;DHT22;4511;50.890;8.054;2023-07-13T11:57:51;22.30;99.90
8953;DHT22;4511;50.890;8.054;2023-07-13T12:00:23;22.40;99.90
8953;DHT22;4511;50.890;8.054;2023-07-13T12:02:55;22.20;99.90
8953;DHT22;4511;50.890;8.054;2023-07-13T12:05:22;22.10;99.90
8953;DHT22;4511;50.890;8.054;2023-07-13T12:07:50;22.00;99.90
8953;DHT22;4511;50.890;8.054;2023-07-13T12:10:23;22.20;99.90
8953;DHT22;4511;50.890;8.054;2023-07-13T12:12:53;22.40;99.90
8953;DHT22;4511;50.890;8.054;2023-07-13T12:15:20;22.30;99.90
8953;DHT22;4511;50.890;8.054;2023-07-13T12:17:48;22.20;99.90
8953;DHT22;4511;50.890;8.054;2023-07-13T12:20:20;22.20;99.90
8953;DHT22;4511;50.890;8.054;2023-07-13T12:22:49;22.20;99.90
8953;DHT22;4511;50.890;8.054;2023-07-13T12:25:17;22.20;99.90
8953;DHT22;4511;50.890;8.054;2023-07-13T12:27:48;22.50;99.90
8953;DHT22;4511;50.890;8.054;2023-07-13T12:30:24;22.50;99.90
8953;DHT22;4511;50.890;8.054;2023-07-13T12:33:00;22.60;99.90
8953;DHT22;4511;50.890;8.054;2023-07-13T12:35:29;22.60;99.90
8953;DHT22;4511;50.890;8.054;2023-07-13T12:38:01;23.30;99.90
8953;DHT22;4511;50.890;8.054;2023-07-13T12:40:32;24.20;99.90
8953;DHT22;4511;50.890;8.054;2023-07-13T12:43:01;24.40;99.90
8953;DHT22;4511;50.890;8.054;2023-07-13T12:45:30;24.00;98.40
8953;DHT22;4511;50.890;8.054;2023-07-13T12:47:58;23.40;98.70
8953;DHT22;4511;50.890;8.054;2023-07-13T12:50:30;23.30;98.80
8953;DHT22;4511;50.890;8.054;2023-07-13T12:53:02;22.20;99.20
8953;DHT22;4511;50.890;8.054;2023-07-13T12:55:30;21.90;99.90
8953;DHT22;4511;50.890;8.054;2023-07-13T12:57:59;22.10;99.90
8953;DHT22;4511;50.890;8.054;2023-07-13T13:00:30;21.80;99.90
8953;DHT22;4511;50.890;8.054;2023-07-13T13:03:02;21.70;99.90
8953;DHT22;4511;50.890;8.054;2023-07-13T13:05:29;21.80;99.90
8953;DHT22;4511;50.890;8.054;2023-07-13T13:07:57;22.10;99.90
8953;DHT22;4511;50.890;8.054;2023-07-13T13:10:24;22.30;99.90
8953;DHT22;4511;50.890;8.054;2023-07-13T13:12:52;22.60;99.70
8953;DHT22;4511;50.890;8.054;2023-07-13T13:15:19;23.20;99.90
8953;DHT22;4511;50.890;8.054;2023-07-13T13:17:49;23.50;98.80
8953;DHT22;4511;50.890;8.054;2023-07-13T13:20:18;23.50;98.90
8953;DHT22;4511;50.890;8.054;2023-07-13T13:22:45;22.80;99.30
8953;DHT22;4511;50.890;8.054;2023-07-13T13:25:14;22.90;99.90
8953;DHT22;4511;50.890;8.054;2023-07-13T13:27:42;22.70;97.90
8953;DHT22;4511;50.890;8.054;2023-07-13T13:30:11;22.90;98.30
8953;DHT22;4511;50.890;8.054;2023-07-13T13:32:38;22.60;97.90
8953;DHT22;4511;50.890;8.054;2023-07-13T13:35:12;22.70;98.40
8953;DHT22;4511;50.890;8.054;2023-07-13T13:37:39;22.30;99.50
8953;DHT22;4511;50.890;8.054;2023-07-13T13:40:14;22.20;99.40
8953;DHT22;4511;50.890;8.054;2023-07-13T13:42:41;22.90;99.30
8953;DHT22;4511;50.890;8.054;2023-07-13T13:45:09;23.30;98.80
8953;DHT22;4511;50.890;8.054;2023-07-13T13:47:38;23.10;98.70
8953;DHT22;4511;50.890;8.054;2023-07-13T13:50:16;22.70;99.20
8953;DHT22;4511;50.890;8.054;2023-07-13T13:52:44;22.50;98.30
8953;DHT22;4511;50.890;8.054;2023-07-13T13:55:14;22.20;99.10
8953;DHT22;4511;50.890;8.054;2023-07-13T13:57:43;22.50;99.40
8953;DHT22;4511;50.890;8.054;2023-07-13T14:00:10;22.40;99.10
8953;DHT22;4511;50.890;8.054;2023-07-13T14:02:40;22.90;99.00
8953;DHT22;4511;50.890;8.054;2023-07-13T14:05:12;23.20;99.10
8953;DHT22;4511;50.890;8.054;2023-07-13T14:07:40;23.40;98.60
8953;DHT22;4511;50.890;8.054;2023-07-13T14:10:12;22.90;98.50
8953;DHT22;4511;50.890;8.054;2023-07-13T14:12:40;22.60;98.50
8953;DHT22;4511;50.890;8.054;2023-07-13T14:15:14;22.60;99.40
8953;DHT22;4511;50.890;8.054;2023-07-13T14:17:43;22.90;99.00
8953;DHT22;4511;50.890;8.054;2023-07-13T14:20:12;22.90;99.00
8953;DHT22;4511;50.890;8.054;2023-07-13T14:22:40;22.70;99.20
8953;DHT22;4511;50.890;8.054;2023-07-13T14:25:11;23.10;99.40
8953;DHT22;4511;50.890;8.054;2023-07-13T14:27:38;23.70;97.50
8953;DHT22;4511;50.890;8.054;2023-07-13T14:30:12;23.90;96.90
8953;DHT22;4511;50.890;8.054;2023-07-13T14:32:39;24.20;96.40
8953;DHT22;4511;50.890;8.054;2023-07-13T14:35:07;23.70;97.30
8953;DHT22;4511;50.890;8.054;2023-07-13T14:37:34;23.60;96.50
8953;DHT22;4511;50.890;8.054;2023-07-13T14:40:12;23.50;97.00
8953;DHT22;4511;50.890;8.054;2023-07-13T14:42:40;23.60;97.10
8953;DHT22;4511;50.890;8.054;2023-07-13T14:45:13;23.90;96.70
8953;DHT22;4511;50.890;8.054;2023-07-13T14:47:40;24.00;96.60
8953;DHT22;4511;50.890;8.054;2023-07-13T14:50:14;24.40;95.40
8953;DHT22;4511;50.890;8.054;2023-07-13T14:52:42;24.50;95.70
8953;DHT22;4511;50.890;8.054;2023-07-13T14:55:12;23.70;96.00
8953;DHT22;4511;50.890;8.054;2023-07-13T14:57:40;23.30;96.20
8953;DHT22;4511;50.890;8.054;2023-07-13T15:00:13;24.00;95.60
8953;DHT22;4511;50.890;8.054;2023-07-13T15:02:42;24.20;95.00
8953;DHT22;4511;50.890;8.054;2023-07-13T15:05:14;24.80;94.90
8953;DHT22;4511;50.890;8.054;2023-07-13T15:07:42;24.30;94.20
8953;DHT22;4511;50.890;8.054;2023-07-13T15:10:18;24.10;94.60
8953;DHT22;4511;50.890;8.054;2023-07-13T15:12:46;23.60;94.90
8953;DHT22;4511;50.890;8.054;2023-07-13T15:15:13;23.40;94.80
8953;DHT22;4511;50.890;8.054;2023-07-13T15:17:41;23.60;94.80
8953;DHT22;4511;50.890;8.054;2023-07-13T15:20:27;23.80;95.60
8953;DHT22;4511;50.890;8.054;2023-07-13T15:22:55;23.90;94.30
8953;DHT22;4511;50.890;8.054;2023-07-13T15:25:25;23.70;94.50
8953;DHT22;4511;50.890;8.054;2023-07-13T15:27:52;24.70;93.80
8953;DHT22;4511;50.890;8.054;2023-07-13T15:30:20;25.80;92.60
8953;DHT22;4511;50.890;8.054;2023-07-13T15:32:47;25.90;91.80
8953;DHT22;4511;50.890;8.054;2023-07-13T15:35:16;25.60;91.80
8953;DHT22;4511;50.890;8.054;2023-07-13T15:37:43;24.60;90.70
8953;DHT22;4511;50.890;8.054;2023-07-13T15:40:11;25.40;90.80
8953;DHT22;4511;50.890;8.054;2023-07-13T15:42:41;25.20;88.80
8953;DHT22;4511;50.890;8.054;2023-07-13T15:45:15;25.00;90.00
8953;DHT22;4511;50.890;8.054;2023-07-13T15:47:43;25.40;89.80
8953;DHT22;4511;50.890;8.054;2023-07-13T15:50:14;25.40;90.80
8953;DHT22;4511;50.890;8.054;2023-07-13T15:52:42;24.80;89.80
8953;DHT22;4511;50.890;8.054;2023-07-13T15:55:11;25.40;90.20
8953;DHT22;4511;50.890;8.054;2023-07-13T15:57:40;25.60;87.50
8953;DHT22;4511;50.890;8.054;2023-07-13T16:00:18;25.40;85.90
8953;DHT22;4511;50.890;8.054;2023-07-13T16:02:47;26.10;86.90
8953;DHT22;4511;50.890;8.054;2023-07-13T16:05:14;26.30;86.40
8953;DHT22;4511;50.890;8.054;2023-07-13T16:07:41;26.60;84.80
8953;DHT22;4511;50.890;8.054;2023-07-13T16:10:14;26.50;85.10
8953;DHT22;4511;50.890;8.054;2023-07-13T16:12:43;26.30;86.00
8953;DHT22;4511;50.890;8.054;2023-07-13T16:15:13;25.20;86.80
8953;DHT22;4511;50.890;8.054;2023-07-13T16:17:41;25.90;86.20
8953;DHT22;4511;50.890;8.054;2023-07-13T16:20:09;25.50;86.80